sensor_id;sensor_type;location;lat;lon;timestamp;temperature;humidity
66506;HTU21D;53332;51.082;5.832;2022-10-16T00:01:16;14.18;118.99
66506;HTU21D;53332;51.082;5.832;2022-10-16T00:03:44;14.18;118.99
66506;HTU21D;53332;51.082;5.832;2022-10-16T00:06:10;14.17;118.99
66506;HTU21D;53332;51.082;5.832;2022-10-16T00:08:37;14.18;118.99
66506;HTU21D;53332;51.082;5.832;2022-10-16T00:11:25;14.17;118.99
66506;HTU21D;53332;51.082;5.832;2022-10-16T00:13:56;14.18;118.99
66506;HTU21D;53332;51.082;5.832;2022-10-16T00:16:23;14.19;118.99
66506;HTU21D;53332;51.082;5.832;2022-10-16T00:18:48;14.17;118.99
66506;HTU21D;53332;51.082;5.832;2022-10-16T00:21:17;14.17;118.99
66506;HTU21D;53332;51.082;5.832;2022-10-16T00:23:44;14.15;118.99
66506;HTU21D;53332;51.082;5.832;2022-10-16T00:26:14;14.13;118.99
66506;HTU21D;53332;51.082;5.832;2022-10-16T00:28:40;14.11;118.99
66506;HTU21D;53332;51.082;5.832;2022-10-16T00:31:11;14.10;118.99
66506;HTU21D;53332;51.082;5.832;2022-10-16T00:33:39;14.08;118.99
66506;HTU21D;53332;51.082;5.832;2022-10-16T00:36:07;14.07;118.99
66506;HTU21D;53332;51.082;5.832;2022-10-16T00:38:33;14.05;118.99
66506;HTU21D;53332;51.082;5.832;2022-10-16T00:41:00;14.05;118.99
66506;HTU21D;53332;51.082;5.832;2022-10-16T00:46:10;14.05;118.99
66506;HTU21D;53332;51.082;5.832;2022-10-16T00:48:36;14.05;118.99
66506;HTU21D;53332;51.082;5.832;2022-10-16T00:51:04;14.05;118.99
66506;HTU21D;53332;51.082;5.832;2022-10-16T00:53:31;14.05;118.99
66506;HTU21D;53332;51.082;5.832;2022-10-16T00:55:57;14.05;118.99
66506;HTU21D;53332;51.082;5.832;2022-10-16T00:58:23;14.05;118.99
66506;HTU21D;53332;51.082;5.832;2022-10-16T01:00:48;14.07;118.99
66506;HTU21D;53332;51.082;5.832;2022-10-16T01:14:04;14.00;118.99
66506;HTU21D;53332;51.082;5.832;2022-10-16T01:16:57;13.94;118.99
66506;HTU21D;53332;51.082;5.832;2022-10-16T01:22:25;13.83;118.99
66506;HTU21D;53332;51.082;5.832;2022-10-16T01:25:03;13.77;118.99
66506;HTU21D;53332;51.082;5.832;2022-10-16T01:27:36;13.70;118.99
66506;HTU21D;53332;51.082;5.832;2022-10-16T01:30:31;13.64;118.99
66506;HTU21D;53332;51.082;5.832;2022-10-16T01:33:05;13.60;118.99
66506;HTU21D;53332;51.082;5.832;2022-10-16T01:35:45;13.55;118.99
66506;HTU21D;53332;51.082;5.832;2022-10-16T01:38:26;13.52;118.99
66506;HTU21D;53332;51.082;5.832;2022-10-16T01:41:01;13.49;118.99
66506;HTU21D;53332;51.082;5.832;2022-10-16T01:43:36;13.45;118.99
66506;HTU21D;53332;51.082;5.832;2022-10-16T01:46:05;13.44;118.99
66506;HTU21D;53332;51.082;5.832;2022-10-16T01:48:34;13.41;118.99
66506;HTU21D;53332;51.082;5.832;2022-10-16T01:51:11;13.38;118.99
66506;HTU21D;53332;51.082;5.832;2022-10-16T01:53:39;13.37;118.99
66506;HTU21D;53332;51.082;5.832;2022-10-16T01:56:10;13.34;118.99
66506;HTU21D;53332;51.082;5.832;2022-10-16T01:58:49;13.33;118.99
66506;HTU21D;53332;51.082;5.832;2022-10-16T02:01:19;13.31;118.99
66506;HTU21D;53332;51.082;5.832;2022-10-16T02:03:49;13.29;118.99
66506;HTU21D;53332;51.082;5.832;2022-10-16T02:06:17;13.29;118.99
66506;HTU21D;53332;51.082;5.832;2022-10-16T02:08:43;13.26;118.99
66506;HTU21D;53332;51.082;5.832;2022-10-16T02:11:10;13.26;118.99
66506;HTU21D;53332;51.082;5.832;2022-10-16T02:13:41;13.26;118.99
66506;HTU21D;53332;51.082;5.832;2022-10-16T02:16:11;13.27;118.99
66506;HTU21D;53332;51.082;5.832;2022-10-16T02:18:37;13.29;118.99
66506;HTU21D;53332;51.082;5.832;2022-10-16T02:21:36;13.32;118.99
66506;HTU21D;53332;51.082;5.832;2022-10-16T02:29:32;13.36;118.99
66506;HTU21D;53332;51.082;5.832;2022-10-16T02:32:03;13.37;118.99
66506;HTU21D;53332;51.082;5.832;2022-10-16T02:34:32;13.40;118.99
66506;HTU21D;53332;51.082;5.832;2022-10-16T02:37:01;13.40;118.99
66506;HTU21D;53332;51.082;5.832;2022-10-16T02:39:29;13.41;118.99
66506;HTU21D;53332;51.082;5.832;2022-10-16T02:41:55;13.41;118.99
66506;HTU21D;53332;51.082;5.832;2022-10-16T02:44:21;13.43;118.99
66506;HTU21D;53332;51.082;5.832;2022-10-16T02:46:47;13.47;118.99
66506;HTU21D;53332;51.082;5.832;2022-10-16T02:49:14;13.48;118.99
66506;HTU21D;53332;51.082;5.832;2022-10-16T02:51:39;13.49;118.99
66506;HTU21D;53332;51.082;5.832;2022-10-16T02:54:05;13.53;118.99
66506;HTU21D;53332;51.082;5.832;2022-10-16T02:56:31;13.55;118.99
66506;HTU21D;53332;51.082;5.832;2022-10-16T02:58:57;13.55;118.99
66506;HTU21D;53332;51.082;5.832;2022-10-16T03:01:23;13.56;118.99
66506;HTU21D;53332;51.082;5.832;2022-10-16T03:03:49;13.58;118.99
66506;HTU21D;53332;51.082;5.832;2022-10-16T03:06:15;13.60;118.99
66506;HTU21D;53332;51.082;5.832;2022-10-16T03:08:40;13.61;118.99
66506;HTU21D;53332;51.082;5.832;2022-10-16T03:11:06;13.60;118.99
66506;HTU21D;53332;51.082;5.832;2022-10-16T03:13:31;13.60;118.99
66506;HTU21D;53332;51.082;5.832;2022-10-16T03:15:57;13.58;118.99
66506;HTU21D;53332;51.082;5.832;2022-10-16T03:18:22;13.55;118.99
66506;HTU21D;53332;51.082;5.832;2022-10-16T03:20:48;13.51;118.99
66506;HTU21D;53332;51.082;5.832;2022-10-16T03:23:13;13.48;118.99
66506;HTU21D;53332;51.082;5.832;2022-10-16T03:25:39;13.47;118.99
66506;HTU21D;53332;51.082;5.832;2022-10-16T03:28:05;13.43;118.99
66506;HTU21D;53332;51.082;5.832;2022-10-16T03:30:31;13.40;118.99
66506;HTU21D;53332;51.082;5.832;2022-10-16T03:32:56;13.38;118.99
66506;HTU21D;53332;51.082;5.832;2022-10-16T03:35:23;13.36;118.99
66506;HTU21D;53332;51.082;5.832;2022-10-16T03:37:50;13.35;118.99
66506;HTU21D;53332;51.082;5.832;2022-10-16T03:40:17;13.34;118.99
66506;HTU21D;53332;51.082;5.832;2022-10-16T03:42:43;13.33;118.99
66506;HTU21D;53332;51.082;5.832;2022-10-16T03:45:10;13.34;118.99
66506;HTU21D;53332;51.082;5.832;2022-10-16T03:47:37;13.35;118.99
66506;HTU21D;53332;51.082;5.832;2022-10-16T03:50:03;13.33;118.99
66506;HTU21D;53332;51.082;5.832;2022-10-16T03:52:29;13.34;118.99
66506;HTU21D;53332;51.082;5.832;2022-10-16T03:54:55;13.33;118.99
66506;HTU21D;53332;51.082;5.832;2022-10-16T03:57:21;13.32;118.99
66506;HTU21D;53332;51.082;5.832;2022-10-16T03:59:47;13.31;118.99
66506;HTU21D;53332;51.082;5.832;2022-10-16T04:02:13;13.32;118.99
66506;HTU21D;53332;51.082;5.832;2022-10-16T04:04:38;13.30;118.99
66506;HTU21D;53332;51.082;5.832;2022-10-16T04:07:04;13.30;118.99
66506;HTU21D;53332;51.082;5.832;2022-10-16T04:09:30;13.27;118.99
66506;HTU21D;53332;51.082;5.832;2022-10-16T04:11:55;13.26;118.99
66506;HTU21D;53332;51.082;5.832;2022-10-16T04:14:21;13.24;118.99
66506;HTU21D;53332;51.082;5.832;2022-10-16T04:16:47;13.22;118.99
66506;HTU21D;53332;51.082;5.832;2022-10-16T04:19:13;13.21;118.99
66506;HTU21D;53332;51.082;5.832;2022-10-16T04:21:38;13.20;118.99
66506;HTU21D;53332;51.082;5.832;2022-10-16T04:24:04;13.21;118.99
66506;HTU21D;53332;51.082;5.832;2022-10-16T04:26:31;13.22;118.99
66506;HTU21D;53332;51.082;5.832;2022-10-16T04:28:57;13.23;118.99
66506;HTU21D;53332;51.082;5.832;2022-10-16T04:31:23;13.21;118.99
66506;HTU21D;53332;51.082;5.832;2022-10-16T04:33:49;13.19;118.99
66506;HTU21D;53332;51.082;5.832;2022-10-16T04:36:15;13.20;118.99
66506;HTU21D;53332;51.082;5.832;2022-10-16T04:38:40;13.20;118.99
66506;HTU21D;53332;51.082;5.832;2022-10-16T04:41:07;13.20;118.99
66506;HTU21D;53332;51.082;5.832;2022-10-16T04:43:33;13.20;118.99
66506;HTU21D;53332;51.082;5.832;2022-10-16T04:45:59;13.22;118.99
66506;HTU21D;53332;51.082;5.832;2022-10-16T04:48:25;13.21;118.99
66506;HTU21D;53332;51.082;5.832;2022-10-16T04:50:51;13.22;118.99
66506;HTU21D;53332;51.082;5.832;2022-10-16T04:53:16;13.23;118.99
66506;HTU21D;53332;51.082;5.832;2022-10-16T04:55:43;13.22;118.99
66506;HTU21D;53332;51.082;5.832;2022-10-16T04:58:09;13.24;118.99
66506;HTU21D;53332;51.082;5.832;2022-10-16T05:00:35;13.24;118.99
66506;HTU21D;53332;51.082;5.832;2022-10-16T05:03:01;13.23;118.99
66506;HTU21D;53332;51.082;5.832;2022-10-16T05:05:31;13.20;118.99
66506;HTU21D;53332;51.082;5.832;2022-10-16T05:07:56;13.20;118.99
66506;HTU21D;53332;51.082;5.832;2022-10-16T05:10:22;13.19;118.99
66506;HTU21D;53332;51.082;5.832;2022-10-16T05:12:47;13.19;118.99
66506;HTU21D;53332;51.082;5.832;2022-10-16T05:15:13;13.19;118.99
66506;HTU21D;53332;51.082;5.832;2022-10-16T05:17:39;13.20;118.99
66506;HTU21D;53332;51.082;5.832;2022-10-16T05:20:06;13.18;118.99
66506;HTU21D;53332;51.082;5.832;2022-10-16T05:22:31;13.17;118.99
66506;HTU21D;53332;51.082;5.832;2022-10-16T05:24:57;13.14;118.99
66506;HTU21D;53332;51.082;5.832;2022-10-16T05:27:22;13.11;118.99
66506;HTU21D;53332;51.082;5.832;2022-10-16T05:29:48;13.06;118.99
66506;HTU21D;53332;51.082;5.832;2022-10-16T05:32:15;13.02;118.99
66506;HTU21D;53332;51.082;5.832;2022-10-16T05:34:41;12.99;118.99
66506;HTU21D;53332;51.082;5.832;2022-10-16T05:37:07;12.93;118.99
66506;HTU21D;53332;51.082;5.832;2022-10-16T05:39:33;12.92;118.99
66506;HTU21D;53332;51.082;5.832;2022-10-16T05:41:58;12.90;118.99
66506;HTU21D;53332;51.082;5.832;2022-10-16T05:44:24;12.89;118.99
66506;HTU21D;53332;51.082;5.832;2022-10-16T05:46:49;12.84;118.99
66506;HTU21D;53332;51.082;5.832;2022-10-16T05:49:15;12.82;118.99
66506;HTU21D;53332;51.082;5.832;2022-10-16T05:51:40;12.82;118.99
66506;HTU21D;53332;51.082;5.832;2022-10-16T05:54:07;12.84;118.99
66506;HTU21D;53332;51.082;5.832;2022-10-16T05:56:33;12.87;118.99
66506;HTU21D;53332;51.082;5.832;2022-10-16T05:58:58;12.89;118.99
66506;HTU21D;53332;51.082;5.832;2022-10-16T06:01:24;12.90;118.99
66506;HTU21D;53332;51.082;5.832;2022-10-16T06:03:51;12.89;118.99
66506;HTU21D;53332;51.082;5.832;2022-10-16T06:06:21;12.90;118.99
66506;HTU21D;53332;51.082;5.832;2022-10-16T06:08:48;12.88;118.99
66506;HTU21D;53332;51.082;5.832;2022-10-16T06:11:16;12.89;118.99
66506;HTU21D;53332;51.082;5.832;2022-10-16T06:13:43;12.88;118.99
66506;HTU21D;53332;51.082;5.832;2022-10-16T06:16:12;12.87;118.99
66506;HTU21D;53332;51.082;5.832;2022-10-16T06:18:39;12.86;118.99
66506;HTU21D;53332;51.082;5.832;2022-10-16T06:21:14;12.86;118.99
66506;HTU21D;53332;51.082;5.832;2022-10-16T06:23:42;12.86;118.99
66506;HTU21D;53332;51.082;5.832;2022-10-16T06:26:13;12.85;118.99
66506;HTU21D;53332;51.082;5.832;2022-10-16T06:28:40;12.84;118.99
66506;HTU21D;53332;51.082;5.832;2022-10-16T06:31:09;12.81;118.99
66506;HTU21D;53332;51.082;5.832;2022-10-16T06:33:36;12.80;118.99
66506;HTU21D;53332;51.082;5.832;2022-10-16T06:36:12;12.80;118.99
66506;HTU21D;53332;51.082;5.832;2022-10-16T06:38:39;12.78;118.99
66506;HTU21D;53332;51.082;5.832;2022-10-16T06:41:06;12.78;118.99
66506;HTU21D;53332;51.082;5.832;2022-10-16T06:43:33;12.75;118.99
66506;HTU21D;53332;51.082;5.832;2022-10-16T06:46:01;12.74;118.99
66506;HTU21D;53332;51.082;5.832;2022-10-16T06:48:28;12.74;118.99
66506;HTU21D;53332;51.082;5.832;2022-10-16T06:53:33;12.77;118.99
66506;HTU21D;53332;51.082;5.832;2022-10-16T06:56:13;12.80;118.99
66506;HTU21D;53332;51.082;5.832;2022-10-16T06:58:40;12.85;118.99
66506;HTU21D;53332;51.082;5.832;2022-10-16T07:01:07;12.86;118.99
66506;HTU21D;53332;51.082;5.832;2022-10-16T07:03:33;12.86;118.99
66506;HTU21D;53332;51.082;5.832;2022-10-16T07:06:03;12.90;118.99
66506;HTU21D;53332;51.082;5.832;2022-10-16T07:08:35;12.94;118.99
66506;HTU21D;53332;51.082;5.832;2022-10-16T07:11:09;13.01;118.99
66506;HTU21D;53332;51.082;5.832;2022-10-16T07:13:36;13.06;118.99
66506;HTU21D;53332;51.082;5.832;2022-10-16T07:16:11;13.14;118.99
66506;HTU21D;53332;51.082;5.832;2022-10-16T07:18:37;13.19;118.99
66506;HTU21D;53332;51.082;5.832;2022-10-16T07:21:12;13.27;118.99
66506;HTU21D;53332;51.082;5.832;2022-10-16T07:23:40;13.35;118.99
66506;HTU21D;53332;51.082;5.832;2022-10-16T07:26:07;13.45;118.99
66506;HTU21D;53332;51.082;5.832;2022-10-16T07:28:33;13.50;118.99
66506;HTU21D;53332;51.082;5.832;2022-10-16T07:31:03;13.58;118.99
66506;HTU21D;53332;51.082;5.832;2022-10-16T07:33:31;13.65;118.99
66506;HTU21D;53332;51.082;5.832;2022-10-16T07:35:56;13.75;118.99
66506;HTU21D;53332;51.082;5.832;2022-10-16T07:38:23;13.83;118.99
66506;HTU21D;53332;51.082;5.832;2022-10-16T07:41:05;13.93;118.99
66506;HTU21D;53332;51.082;5.832;2022-10-16T07:43:33;14.01;118.99
66506;HTU21D;53332;51.082;5.832;2022-10-16T07:46:00;14.11;118.99
66506;HTU21D;53332;51.082;5.832;2022-10-16T07:48:32;14.21;118.99
66506;HTU21D;53332;51.082;5.832;2022-10-16T07:51:03;14.29;118.99
66506;HTU21D;53332;51.082;5.832;2022-10-16T07:53:29;14.38;118.99
66506;HTU21D;53332;51.082;5.832;2022-10-16T07:56:03;14.47;118.99
66506;HTU21D;53332;51.082;5.832;2022-10-16T07:58:31;14.55;118.99
66506;HTU21D;53332;51.082;5.832;2022-10-16T08:00:58;14.63;118.99
66506;HTU21D;53332;51.082;5.832;2022-10-16T08:03:24;14.71;118.99
66506;HTU21D;53332;51.082;5.832;2022-10-16T08:05:50;14.82;118.99
66506;HTU21D;53332;51.082;5.832;2022-10-16T08:08:17;14.89;118.99
66506;HTU21D;53332;51.082;5.832;2022-10-16T08:10:43;14.97;118.99
66506;HTU21D;53332;51.082;5.832;2022-10-16T08:13:11;15.04;118.99
66506;HTU21D;53332;51.082;5.832;2022-10-16T08:15:40;15.10;118.99
66506;HTU21D;53332;51.082;5.832;2022-10-16T08:18:06;15.15;118.99
66506;HTU21D;53332;51.082;5.832;2022-10-16T08:20:33;15.21;118.99
66506;HTU21D;53332;51.082;5.832;2022-10-16T08:23:01;15.29;118.99
66506;HTU21D;53332;51.082;5.832;2022-10-16T08:25:29;15.34;118.99
66506;HTU21D;53332;51.082;5.832;2022-10-16T08:27:54;15.41;118.99
66506;HTU21D;53332;51.082;5.832;2022-10-16T08:30:22;15.44;118.99
66506;HTU21D;53332;51.082;5.832;2022-10-16T08:32:47;15.52;118.99
66506;HTU21D;53332;51.082;5.832;2022-10-16T08:35:14;15.58;118.99
66506;HTU21D;53332;51.082;5.832;2022-10-16T08:37:41;15.65;118.99
66506;HTU21D;53332;51.082;5.832;2022-10-16T08:40:25;15.71;118.99
66506;HTU21D;53332;51.082;5.832;2022-10-16T08:48:24;15.93;118.99
66506;HTU21D;53332;51.082;5.832;2022-10-16T08:50:52;15.99;118.99
66506;HTU21D;53332;51.082;5.832;2022-10-16T08:53:33;16.07;118.99
66506;HTU21D;53332;51.082;5.832;2022-10-16T08:56:01;16.13;118.99
66506;HTU21D;53332;51.082;5.832;2022-10-16T08:58:29;16.18;118.99
66506;HTU21D;53332;51.082;5.832;2022-10-16T09:01:01;16.26;118.99
66506;HTU21D;53332;51.082;5.832;2022-10-16T09:12:16;16.49;118.99
66506;HTU21D;53332;51.082;5.832;2022-10-16T09:17:44;16.56;118.99
66506;HTU21D;53332;51.082;5.832;2022-10-16T09:20:42;16.57;118.99
66506;HTU21D;53332;51.082;5.832;2022-10-16T09:23:18;16.60;118.99
66506;HTU21D;53332;51.082;5.832;2022-10-16T09:25:47;16.67;118.99
66506;HTU21D;53332;51.082;5.832;2022-10-16T09:28:14;16.74;118.99
66506;HTU21D;53332;51.082;5.832;2022-10-16T09:30:40;16.78;118.99
66506;HTU21D;53332;51.082;5.832;2022-10-16T09:33:11;16.85;118.99
66506;HTU21D;53332;51.082;5.832;2022-10-16T09:35:43;16.88;118.99
66506;HTU21D;53332;51.082;5.832;2022-10-16T09:38:30;16.94;118.99
66506;HTU21D;53332;51.082;5.832;2022-10-16T09:41:17;17.00;118.99
66506;HTU21D;53332;51.082;5.832;2022-10-16T09:44:02;17.05;118.99
66506;HTU21D;53332;51.082;5.832;2022-10-16T09:46:36;17.14;118.99
66506;HTU21D;53332;51.082;5.832;2022-10-16T09:49:18;17.14;118.99
66506;HTU21D;53332;51.082;5.832;2022-10-16T09:51:44;17.18;118.99
66506;HTU21D;53332;51.082;5.832;2022-10-16T09:56:37;17.25;118.99
66506;HTU21D;53332;51.082;5.832;2022-10-16T09:59:20;17.29;118.99
66506;HTU21D;53332;51.082;5.832;2022-10-16T10:01:50;17.34;118.99
66506;HTU21D;53332;51.082;5.832;2022-10-16T10:04:17;17.39;118.99
66506;HTU21D;53332;51.082;5.832;2022-10-16T10:06:52;17.52;118.99
66506;HTU21D;53332;51.082;5.832;2022-10-16T10:09:25;17.55;118.99
66506;HTU21D;53332;51.082;5.832;2022-10-16T10:14:26;17.68;118.99
66506;HTU21D;53332;51.082;5.832;2022-10-16T10:19:51;17.77;118.99
66506;HTU21D;53332;51.082;5.832;2022-10-16T10:22:41;17.82;118.99
66506;HTU21D;53332;51.082;5.832;2022-10-16T10:39:15;18.34;118.99
66506;HTU21D;53332;51.082;5.832;2022-10-16T10:44:50;18.43;118.99
66506;HTU21D;53332;51.082;5.832;2022-10-16T11:01:17;18.56;118.99
66506;HTU21D;53332;51.082;5.832;2022-10-16T11:07:39;18.50;118.99
66506;HTU21D;53332;51.082;5.832;2022-10-16T11:09:48;18.40;118.99
66506;HTU21D;53332;51.082;5.832;2022-10-16T11:12:25;18.39;118.99
66506;HTU21D;53332;51.082;5.832;2022-10-16T11:15:12;18.53;118.99
66506;HTU21D;53332;51.082;5.832;2022-10-16T11:17:51;18.69;118.99
66506;HTU21D;53332;51.082;5.832;2022-10-16T11:20:28;18.85;118.99
66506;HTU21D;53332;51.082;5.832;2022-10-16T11:23:21;18.91;118.99
66506;HTU21D;53332;51.082;5.832;2022-10-16T11:25:51;18.96;118.99
66506;HTU21D;53332;51.082;5.832;2022-10-16T11:28:28;19.02;118.99
66506;HTU21D;53332;51.082;5.832;2022-10-16T11:39:30;19.14;118.99
66506;HTU21D;53332;51.082;5.832;2022-10-16T11:47:30;19.46;118.99
66506;HTU21D;53332;51.082;5.832;2022-10-16T11:52:54;19.48;118.99
66506;HTU21D;53332;51.082;5.832;2022-10-16T11:55:29;19.52;118.99
66506;HTU21D;53332;51.082;5.832;2022-10-16T11:58:30;19.67;118.99
66506;HTU21D;53332;51.082;5.832;2022-10-16T12:01:31;19.82;118.99
66506;HTU21D;53332;51.082;5.832;2022-10-16T12:04:23;19.88;118.99
66506;HTU21D;53332;51.082;5.832;2022-10-16T12:07:19;19.83;118.99
66506;HTU21D;53332;51.082;5.832;2022-10-16T12:09:47;19.86;118.99
66506;HTU21D;53332;51.082;5.832;2022-10-16T12:12:39;20.04;118.99
66506;HTU21D;53332;51.082;5.832;2022-10-16T12:17:49;20.60;118.99
66506;HTU21D;53332;51.082;5.832;2022-10-16T12:20:31;20.59;118.99
66506;HTU21D;53332;51.082;5.832;2022-10-16T12:23:04;20.32;118.99
66506;HTU21D;53332;51.082;5.832;2022-10-16T12:25:37;20.04;118.99
66506;HTU21D;53332;51.082;5.832;2022-10-16T12:28:22;19.87;118.99
66506;HTU21D;53332;51.082;5.832;2022-10-16T12:31:14;19.82;118.99
66506;HTU21D;53332;51.082;5.832;2022-10-16T12:33:43;19.83;118.99
66506;HTU21D;53332;51.082;5.832;2022-10-16T12:36:32;19.85;118.99
66506;HTU21D;53332;51.082;5.832;2022-10-16T12:39:01;19.82;118.99
66506;HTU21D;53332;51.082;5.832;2022-10-16T12:41:33;19.76;118.99
66506;HTU21D;53332;51.082;5.832;2022-10-16T12:44:01;19.71;118.99
66506;HTU21D;53332;51.082;5.832;2022-10-16T12:51:42;19.80;118.99
66506;HTU21D;53332;51.082;5.832;2022-10-16T12:54:19;20.05;118.99
66506;HTU21D;53332;51.082;5.832;2022-10-16T12:57:08;20.33;118.99
66506;HTU21D;53332;51.082;5.832;2022-10-16T13:29:32;20.96;116.76
66506;HTU21D;53332;51.082;5.832;2022-10-16T13:32:00;20.92;117.95
66506;HTU21D;53332;51.082;5.832;2022-10-16T13:34:31;20.89;117.02
66506;HTU21D;53332;51.082;5.832;2022-10-16T13:36:59;20.84;117.57
66506;HTU21D;53332;51.082;5.832;2022-10-16T13:39:27;20.85;118.78
66506;HTU21D;53332;51.082;5.832;2022-10-16T13:42:06;20.90;118.99
66506;HTU21D;53332;51.082;5.832;2022-10-16T13:44:47;20.95;118.99
66506;HTU21D;53332;51.082;5.832;2022-10-16T13:47:25;20.90;118.89
66506;HTU21D;53332;51.082;5.832;2022-10-16T13:52:30;20.92;118.99
66506;HTU21D;53332;51.082;5.832;2022-10-16T13:54:56;21.02;118.99
66506;HTU21D;53332;51.082;5.832;2022-10-16T13:57:24;21.09;118.99
66506;HTU21D;53332;51.082;5.832;2022-10-16T13:59:50;21.11;118.99
66506;HTU21D;53332;51.082;5.832;2022-10-16T14:04:51;21.10;118.05
66506;HTU21D;53332;51.082;5.832;2022-10-16T14:07:25;21.09;118.49
66506;HTU21D;53332;51.082;5.832;2022-10-16T14:09:54;21.11;118.99
66506;HTU21D;53332;51.082;5.832;2022-10-16T14:12:22;21.11;118.99
66506;HTU21D;53332;51.082;5.832;2022-10-16T14:14:55;21.08;118.99
66506;HTU21D;53332;51.082;5.832;2022-10-16T14:17:32;21.08;118.99
66506;HTU21D;53332;51.082;5.832;2022-10-16T14:20:02;21.08;118.99
66506;HTU21D;53332;51.082;5.832;2022-10-16T14:22:39;21.06;118.99
66506;HTU21D;53332;51.082;5.832;2022-10-16T14:25:25;21.02;118.99
66506;HTU21D;53332;51.082;5.832;2022-10-16T14:28:04;20.95;118.99
66506;HTU21D;53332;51.082;5.832;2022-10-16T14:30:34;20.89;118.99
66506;HTU21D;53332;51.082;5.832;2022-10-16T14:33:03;20.85;118.99
66506;HTU21D;53332;51.082;5.832;2022-10-16T14:35:37;20.76;118.99
66506;HTU21D;53332;51.082;5.832;2022-10-16T14:38:06;20.69;118.99
66506;HTU21D;53332;51.082;5.832;2022-10-16T14:40:48;20.58;118.99
66506;HTU21D;53332;51.082;5.832;2022-10-16T14:43:23;20.53;118.99
66506;HTU21D;53332;51.082;5.832;2022-10-16T14:45:56;20.49;118.99
66506;HTU21D;53332;51.082;5.832;2022-10-16T14:48:22;20.46;118.99
66506;HTU21D;53332;51.082;5.832;2022-10-16T14:50:49;20.41;118.99
66506;HTU21D;53332;51.082;5.832;2022-10-16T14:53:15;20.33;118.99
66506;HTU21D;53332;51.082;5.832;2022-10-16T14:55:42;20.13;118.99
66506;HTU21D;53332;51.082;5.832;2022-10-16T14:58:18;19.94;118.99
66506;HTU21D;53332;51.082;5.832;2022-10-16T15:00:44;19.77;118.99
66506;HTU21D;53332;51.082;5.832;2022-10-16T15:03:10;19.74;118.99
66506;HTU21D;53332;51.082;5.832;2022-10-16T15:05:36;19.73;118.99
66506;HTU21D;53332;51.082;5.832;2022-10-16T15:08:01;19.72;118.99
66506;HTU21D;53332;51.082;5.832;2022-10-16T15:10:28;19.74;118.99
66506;HTU21D;53332;51.082;5.832;2022-10-16T15:12:58;19.74;118.99
66506;HTU21D;53332;51.082;5.832;2022-10-16T15:17:57;19.68;118.99
66506;HTU21D;53332;51.082;5.832;2022-10-16T15:20:34;19.65;118.99
66506;HTU21D;53332;51.082;5.832;2022-10-16T15:23:10;19.51;118.99
66506;HTU21D;53332;51.082;5.832;2022-10-16T15:25:53;19.37;118.99
66506;HTU21D;53332;51.082;5.832;2022-10-16T15:28:20;19.23;118.99
66506;HTU21D;53332;51.082;5.832;2022-10-16T15:30:50;19.14;118.99
66506;HTU21D;53332;51.082;5.832;2022-10-16T15:33:25;19.13;118.99
66506;HTU21D;53332;51.082;5.832;2022-10-16T15:35:54;19.17;118.99
66506;HTU21D;53332;51.082;5.832;2022-10-16T15:38:22;19.22;118.99
66506;HTU21D;53332;51.082;5.832;2022-10-16T15:40:49;19.23;118.99
66506;HTU21D;53332;51.082;5.832;2022-10-16T15:43:14;19.20;118.99
66506;HTU21D;53332;51.082;5.832;2022-10-16T15:45:40;19.14;118.99
66506;HTU21D;53332;51.082;5.832;2022-10-16T15:48:13;19.08;118.99
66506;HTU21D;53332;51.082;5.832;2022-10-16T15:50:40;19.07;118.99
66506;HTU21D;53332;51.082;5.832;2022-10-16T15:53:05;19.03;118.99
66506;HTU21D;53332;51.082;5.832;2022-10-16T15:55:33;19.01;118.99
66506;HTU21D;53332;51.082;5.832;2022-10-16T15:57:59;18.94;118.99
66506;HTU21D;53332;51.082;5.832;2022-10-16T16:00:24;18.87;118.99
66506;HTU21D;53332;51.082;5.832;2022-10-16T16:02:52;18.80;118.99
66506;HTU21D;53332;51.082;5.832;2022-10-16T16:05:21;18.73;118.99
66506;HTU21D;53332;51.082;5.832;2022-10-16T16:07:48;18.69;118.99
66506;HTU21D;53332;51.082;5.832;2022-10-16T16:10:14;18.62;118.99
66506;HTU21D;53332;51.082;5.832;2022-10-16T16:12:40;18.54;118.99
66506;HTU21D;53332;51.082;5.832;2022-10-16T16:15:07;18.46;118.99
66506;HTU21D;53332;51.082;5.832;2022-10-16T16:17:36;18.40;118.99
66506;HTU21D;53332;51.082;5.832;2022-10-16T16:20:03;18.37;118.99
66506;HTU21D;53332;51.082;5.832;2022-10-16T16:22:31;18.28;118.99
66506;HTU21D;53332;51.082;5.832;2022-10-16T16:24:57;18.20;118.99
66506;HTU21D;53332;51.082;5.832;2022-10-16T16:27:23;18.13;118.99
66506;HTU21D;53332;51.082;5.832;2022-10-16T16:29:50;18.03;118.99
66506;HTU21D;53332;51.082;5.832;2022-10-16T16:32:16;17.95;118.99
66506;HTU21D;53332;51.082;5.832;2022-10-16T16:34:42;17.90;118.99
66506;HTU21D;53332;51.082;5.832;2022-10-16T16:37:08;17.84;118.99
66506;HTU21D;53332;51.082;5.832;2022-10-16T16:39:36;17.80;118.99
66506;HTU21D;53332;51.082;5.832;2022-10-16T16:42:01;17.75;118.99
66506;HTU21D;53332;51.082;5.832;2022-10-16T16:44:30;17.70;118.99
66506;HTU21D;53332;51.082;5.832;2022-10-16T16:46:56;17.68;118.99
66506;HTU21D;53332;51.082;5.832;2022-10-16T16:49:22;17.63;118.99
66506;HTU21D;53332;51.082;5.832;2022-10-16T16:51:47;17.59;118.99
66506;HTU21D;53332;51.082;5.832;2022-10-16T16:54:13;17.60;118.99
66506;HTU21D;53332;51.082;5.832;2022-10-16T16:56:40;17.56;118.99
66506;HTU21D;53332;51.082;5.832;2022-10-16T16:59:14;17.55;118.99
66506;HTU21D;53332;51.082;5.832;2022-10-16T17:01:41;17.55;118.99
66506;HTU21D;53332;51.082;5.832;2022-10-16T17:04:07;17.55;118.99
66506;HTU21D;53332;51.082;5.832;2022-10-16T17:06:33;17.52;118.99
66506;HTU21D;53332;51.082;5.832;2022-10-16T17:09:01;17.49;118.99
66506;HTU21D;53332;51.082;5.832;2022-10-16T17:11:28;17.49;118.99
66506;HTU21D;53332;51.082;5.832;2022-10-16T17:13:56;17.47;118.99
66506;HTU21D;53332;51.082;5.832;2022-10-16T17:16:25;17.43;118.99
66506;HTU21D;53332;51.082;5.832;2022-10-16T17:18:51;17.40;118.99
66506;HTU21D;53332;51.082;5.832;2022-10-16T17:21:18;17.36;118.99
66506;HTU21D;53332;51.082;5.832;2022-10-16T17:23:44;17.35;118.99
66506;HTU21D;53332;51.082;5.832;2022-10-16T17:26:15;17.33;118.99
66506;HTU21D;53332;51.082;5.832;2022-10-16T17:28:42;17.30;118.99
66506;HTU21D;53332;51.082;5.832;2022-10-16T17:31:14;17.25;118.99
66506;HTU21D;53332;51.082;5.832;2022-10-16T17:33:41;17.19;118.99
66506;HTU21D;53332;51.082;5.832;2022-10-16T17:36:08;17.14;118.99
66506;HTU21D;53332;51.082;5.832;2022-10-16T17:38:34;17.13;118.99
66506;HTU21D;53332;51.082;5.832;2022-10-16T17:41:13;17.04;118.99
66506;HTU21D;53332;51.082;5.832;2022-10-16T17:43:39;17.01;118.99
66506;HTU21D;53332;51.082;5.832;2022-10-16T17:46:06;16.96;118.99